createdAt,value
2018-07-16T00:00:22.908Z,35.10
2018-07-16T00:02:56.596Z,38.10
2018-07-16T00:05:29.652Z,35.20
2018-07-16T00:08:03.156Z,36.10
2018-07-16T00:10:36.207Z,35.70
2018-07-16T00:13:09.249Z,35.60
2018-07-16T00:15:42.838Z,33.90
2018-07-16T00:18:15.898Z,34.10
2018-07-16T00:20:48.936Z,35.00
2018-07-16T00:23:22.504Z,34.60
2018-07-16T00:25:55.993Z,34.60
2018-07-16T00:28:29.048Z,34.50
2018-07-16T00:31:02.135Z,34.20
2018-07-16T00:33:36.027Z,34.30
2018-07-16T00:36:10.128Z,35.10
2018-07-16T00:38:43.404Z,33.60
2018-07-16T00:41:17.048Z,33.50
2018-07-16T00:43:49.956Z,33.50
2018-07-16T00:46:24.433Z,32.80
2018-07-16T00:48:57.635Z,33.80
2018-07-16T00:51:31.203Z,33.70
2018-07-16T00:54:05.349Z,33.00
2018-07-16T00:56:38.408Z,32.60
2018-07-16T00:59:11.333Z,33.50
2018-07-16T01:01:44.342Z,31.80
2018-07-16T01:04:17.595Z,30.70
2018-07-16T01:06:52.578Z,30.80
2018-07-16T01:09:25.501Z,30.90
2018-07-16T01:11:59.425Z,31.40
2018-07-16T01:14:33.327Z,30.30
2018-07-16T01:17:06.488Z,29.90
2018-07-16T01:19:41.542Z,30.10
2018-07-16T01:22:14.734Z,30.30
2018-07-16T01:24:49.402Z,30.30
2018-07-16T01:27:22.852Z,29.60
2018-07-16T01:29:56.012Z,30.00
2018-07-16T01:32:29.941Z,30.40
2018-07-16T01:35:03.051Z,30.30
2018-07-16T01:37:36.905Z,31.00
2018-07-16T01:40:10.063Z,31.40
2018-07-16T01:42:43.234Z,30.80
2018-07-16T01:45:17.184Z,30.80
2018-07-16T01:47:50.331Z,29.90
2018-07-16T01:50:23.472Z,31.10
2018-07-16T01:52:56.696Z,31.40
2018-07-16T01:55:29.835Z,30.90
2018-07-16T01:58:03.065Z,32.00
2018-07-16T02:00:36.463Z,30.50
2018-07-16T02:03:10.150Z,30.70
2018-07-16T02:05:44.507Z,30.90
2018-07-16T02:08:17.824Z,30.30
2018-07-16T02:10:51.205Z,31.40
2018-07-16T02:13:25.441Z,29.60
2018-07-16T02:15:58.580Z,29.60
2018-07-16T02:18:32.486Z,30.30
2018-07-16T02:21:05.561Z,30.00
2018-07-16T02:23:38.794Z,31.30
2018-07-16T02:26:12.011Z,31.70
2018-07-16T02:28:45.166Z,31.70
2018-07-16T02:31:18.259Z,31.50
2018-07-16T02:33:51.310Z,31.50
2018-07-16T02:36:24.429Z,33.00
2018-07-16T02:38:57.588Z,33.90
2018-07-16T02:41:30.562Z,35.60
2018-07-16T02:44:03.682Z,36.80
2018-07-16T02:46:36.615Z,37.40
2018-07-16T02:49:09.676Z,38.20
2018-07-16T02:51:42.708Z,38.70
2018-07-16T02:54:15.795Z,39.40
2018-07-16T02:56:50.499Z,40.20
2018-07-16T02:59:23.805Z,40.20
2018-07-16T03:01:57.025Z,40.50
2018-07-16T03:04:29.990Z,41.60
2018-07-16T03:07:03.067Z,42.20
2018-07-16T03:09:36.208Z,41.60
2018-07-16T03:12:09.673Z,42.30
2018-07-16T03:14:42.838Z,42.30
2018-07-16T03:17:15.906Z,42.10
2018-07-16T03:19:49.961Z,43.00
2018-07-16T03:22:23.079Z,43.40
2018-07-16T03:24:56.943Z,43.30
2018-07-16T03:27:31.042Z,43.00
2018-07-16T03:30:04.696Z,45.20
2018-07-16T03:32:37.843Z,44.80
2018-07-16T03:35:11.723Z,45.30
2018-07-16T03:37:44.715Z,45.00
2018-07-16T03:40:17.765Z,45.90
2018-07-16T03:42:51.356Z,45.60
2018-07-16T03:45:24.426Z,45.20
2018-07-16T03:47:57.493Z,45.30
2018-07-16T03:50:30.559Z,47.00
2018-07-16T03:53:03.647Z,46.90
2018-07-16T03:55:36.686Z,46.50
2018-07-16T03:58:09.647Z,45.10
2018-07-16T04:00:42.544Z,45.50
2018-07-16T04:03:15.674Z,45.40
2018-07-16T04:05:49.554Z,45.50
2018-07-16T04:08:22.622Z,46.40
2018-07-16T04:10:55.682Z,46.70
2018-07-16T04:13:28.719Z,49.10
2018-07-16T04:16:01.672Z,50.50
2018-07-16T04:18:34.883Z,49.60
2018-07-16T04:21:09.585Z,52.40
2018-07-16T04:23:43.542Z,52.70
2018-07-16T04:26:16.716Z,53.20
2018-07-16T04:28:51.781Z,53.20
2018-07-16T04:31:24.996Z,53.10
2018-07-16T04:33:58.154Z,54.40
2018-07-16T04:36:31.281Z,55.10
2018-07-16T04:39:06.750Z,55.00
2018-07-16T04:41:39.755Z,55.70
2018-07-16T04:44:12.876Z,57.40
2018-07-16T04:46:46.781Z,56.90
2018-07-16T04:49:21.053Z,57.20
2018-07-16T04:51:54.239Z,57.40
2018-07-16T04:54:27.548Z,58.40
2018-07-16T04:57:01.228Z,58.60
2018-07-16T04:59:34.437Z,59.70
2018-07-16T05:02:08.187Z,59.80
2018-07-16T05:04:41.864Z,60.70
2018-07-16T05:07:15.651Z,61.70
2018-07-16T05:09:50.269Z,63.20
2018-07-16T05:12:23.331Z,64.30
2018-07-16T05:14:56.507Z,65.70
2018-07-16T05:17:30.202Z,66.20
2018-07-16T05:20:03.264Z,67.80
2018-07-16T05:22:36.359Z,68.00
2018-07-16T05:25:09.814Z,68.30
2018-07-16T05:27:43.276Z,69.50
2018-07-16T05:30:17.104Z,68.70
2018-07-16T05:32:50.274Z,70.50
2018-07-16T05:35:23.622Z,70.70
2018-07-16T05:37:57.361Z,72.20
2018-07-16T05:40:30.434Z,72.10
2018-07-16T05:43:03.445Z,73.20
2018-07-16T05:45:37.455Z,73.90
2018-07-16T05:48:10.474Z,74.10
2018-07-16T05:50:44.276Z,74.50
2018-07-16T05:53:17.368Z,75.20
2018-07-16T05:55:50.619Z,76.30
2018-07-16T05:58:24.050Z,76.00
2018-07-16T06:00:57.660Z,75.70
2018-07-16T06:03:30.881Z,75.90
2018-07-16T06:06:04.038Z,75.50
2018-07-16T06:08:37.726Z,76.70
2018-07-16T06:11:12.040Z,76.60
2018-07-16T06:13:45.118Z,77.80
2018-07-16T06:16:19.380Z,78.00
2018-07-16T06:18:52.418Z,78.50
2018-07-16T06:21:25.599Z,79.10
2018-07-16T06:23:58.701Z,80.20
2018-07-16T06:26:31.661Z,79.30
2018-07-16T06:29:04.574Z,79.50
2018-07-16T06:31:38.324Z,79.50
2018-07-16T06:34:11.294Z,79.60
2018-07-16T06:36:44.193Z,79.30
2018-07-16T06:39:17.294Z,80.00
2018-07-16T06:41:50.234Z,80.50
2018-07-16T06:44:23.972Z,82.40
2018-07-16T06:46:57.747Z,81.10
2018-07-16T06:49:35.270Z,80.70
2018-07-16T06:52:13.140Z,82.10
2018-07-16T06:54:47.122Z,81.30
2018-07-16T06:57:20.284Z,81.60
2018-07-16T06:59:53.256Z,81.60
2018-07-16T07:02:26.302Z,81.00
2018-07-16T07:05:01.933Z,80.50
2018-07-16T07:07:35.114Z,79.50
2018-07-16T07:10:08.692Z,80.30
2018-07-16T07:12:41.869Z,79.50
2018-07-16T07:15:14.910Z,79.70
2018-07-16T07:17:48.423Z,81.00
2018-07-16T07:20:21.460Z,80.20
2018-07-16T07:22:54.371Z,80.80
2018-07-16T07:25:27.475Z,81.50
2018-07-16T07:28:00.625Z,80.70
2018-07-16T07:30:33.642Z,81.80
2018-07-16T07:33:06.636Z,82.40
2018-07-16T07:35:39.743Z,82.10
2018-07-16T07:38:12.802Z,82.00
2018-07-16T07:40:45.835Z,81.10
2018-07-16T07:43:18.724Z,81.90
2018-07-16T14:37:10.785Z,98.20
2018-07-16T14:39:44.981Z,98.00
2018-07-16T14:42:22.183Z,97.80
2018-07-16T14:44:55.666Z,97.50
2018-07-16T14:47:33.498Z,97.10
2018-07-16T14:50:06.960Z,96.00
2018-07-16T14:52:41.293Z,94.20
2018-07-16T14:55:14.711Z,93.20
2018-07-16T14:57:48.168Z,92.30
2018-07-16T15:00:22.132Z,91.20
2018-07-16T15:02:55.534Z,91.30
2018-07-16T15:05:29.124Z,90.50
2018-07-16T15:08:02.663Z,90.40
2018-07-16T15:10:36.808Z,90.60
2018-07-16T15:13:10.403Z,89.50
2018-07-16T15:15:43.684Z,90.50
2018-07-16T15:18:18.331Z,89.40
2018-07-16T15:20:51.975Z,89.00
2018-07-16T15:23:25.448Z,90.10
2018-07-16T15:25:59.478Z,90.10
2018-07-16T15:28:34.318Z,90.70
2018-07-16T15:31:08.570Z,90.40
2018-07-16T15:33:42.525Z,89.00
2018-07-16T15:36:17.056Z,88.90
2018-07-16T15:38:50.574Z,90.80
2018-07-16T15:41:23.951Z,91.10
2018-07-16T15:43:58.197Z,90.80
2018-07-16T15:46:31.604Z,90.80
2018-07-16T15:49:04.952Z,91.20
2018-07-16T15:51:38.402Z,91.50
2018-07-16T15:54:11.959Z,91.50
2018-07-16T15:56:45.402Z,91.30
2018-07-16T15:59:19.618Z,91.40
2018-07-16T16:01:53.724Z,92.10
2018-07-16T16:04:27.934Z,91.70
2018-07-16T16:07:01.729Z,91.70
2018-07-16T16:09:35.064Z,90.80
2018-07-16T16:12:09.382Z,91.40
2018-07-16T16:14:42.763Z,91.10
2018-07-16T16:17:16.044Z,91.10
2018-07-16T16:19:49.501Z,90.60
2018-07-16T16:22:22.976Z,89.90
2018-07-16T16:24:56.271Z,90.00
2018-07-16T16:27:29.562Z,89.30
2018-07-16T16:30:04.222Z,89.50
2018-07-16T16:32:38.860Z,88.70
2018-07-16T16:35:13.548Z,89.30
2018-07-16T16:37:46.773Z,87.10
2018-07-16T16:40:20.045Z,87.30
2018-07-16T16:42:53.181Z,85.10
2018-07-16T16:45:26.479Z,86.60
2018-07-16T16:47:59.730Z,86.80
2018-07-16T16:50:33.056Z,84.90
2018-07-16T16:53:06.489Z,86.40
2018-07-16T16:55:39.853Z,85.60
2018-07-16T16:58:13.067Z,85.90
2018-07-16T17:00:49.571Z,85.00
2018-07-16T17:03:22.837Z,83.50
2018-07-16T17:06:06.762Z,85.20
2018-07-16T17:08:39.863Z,83.10
2018-07-16T17:11:13.066Z,80.70
2018-07-16T17:13:46.174Z,80.90
2018-07-16T17:16:19.255Z,80.80
2018-07-16T17:18:52.523Z,80.70
2018-07-16T17:21:25.603Z,81.90
2018-07-16T17:23:58.976Z,79.50
2018-07-16T17:26:32.177Z,79.40
2018-07-16T17:29:05.411Z,79.70
2018-07-16T17:31:38.590Z,80.10
2018-07-16T17:34:11.812Z,79.40
2018-07-16T17:36:45.028Z,79.40
2018-07-16T17:39:18.217Z,79.50
2018-07-16T17:41:51.459Z,80.00
2018-07-16T17:44:24.581Z,79.30
2018-07-16T17:46:57.702Z,78.60
2018-07-16T17:49:30.801Z,77.00
2018-07-16T17:52:03.995Z,77.30
2018-07-16T17:54:37.177Z,77.20
2018-07-16T17:57:10.650Z,77.20
2018-07-16T17:59:43.935Z,77.40
2018-07-16T18:02:17.120Z,73.40
2018-07-16T18:04:50.359Z,73.70
2018-07-16T18:07:24.234Z,73.80
2018-07-16T18:09:57.452Z,73.80
2018-07-16T18:12:30.817Z,74.10
2018-07-16T18:15:04.232Z,73.10
2018-07-16T18:17:37.548Z,73.40
2018-07-16T18:20:11.059Z,72.80
2018-07-16T18:22:44.539Z,73.30
2018-07-16T18:25:17.545Z,75.20
2018-07-16T18:27:50.789Z,75.40
2018-07-16T18:30:25.036Z,74.50
2018-07-16T18:32:58.442Z,72.70
2018-07-16T18:35:31.711Z,72.30
2018-07-16T18:38:05.020Z,75.00
2018-07-16T18:40:38.419Z,73.50
2018-07-16T18:43:12.047Z,74.50
2018-07-16T18:45:45.096Z,73.10
2018-07-16T18:48:18.411Z,73.00
2018-07-16T18:50:52.008Z,73.40
2018-07-16T18:53:25.306Z,71.00
2018-07-16T18:55:58.411Z,72.00
2018-07-16T18:58:32.384Z,71.30
2018-07-16T19:01:05.713Z,71.20
2018-07-16T19:03:38.925Z,71.70
2018-07-16T19:06:12.279Z,70.60
2018-07-16T19:08:45.512Z,71.70
2018-07-16T19:11:18.648Z,71.60
2018-07-16T19:13:51.858Z,68.70
2018-07-16T19:16:25.020Z,67.80
2018-07-16T19:18:58.399Z,68.80
2018-07-16T19:21:31.525Z,69.00
2018-07-16T19:24:05.696Z,68.20
2018-07-16T19:26:39.003Z,65.30
2018-07-16T19:29:12.311Z,68.30
2018-07-16T19:31:46.534Z,66.60
2018-07-16T19:34:19.789Z,65.20
2018-07-16T19:36:53.068Z,64.90
2018-07-16T19:39:26.254Z,65.80
2018-07-16T19:41:59.771Z,65.10
2018-07-16T19:44:32.876Z,67.40
2018-07-16T19:47:06.024Z,64.80
2018-07-16T19:49:39.341Z,64.90
2018-07-16T19:52:12.555Z,63.00
2018-07-16T19:54:45.606Z,64.30
2018-07-16T19:57:18.807Z,64.20
2018-07-16T19:59:51.893Z,62.20
2018-07-16T20:02:25.028Z,61.70
2018-07-16T20:04:58.255Z,60.20
2018-07-16T20:07:31.425Z,62.00
2018-07-16T20:10:04.832Z,60.70
2018-07-16T20:12:39.435Z,63.40
2018-07-16T20:15:12.999Z,60.40
2018-07-16T20:17:46.604Z,62.00
2018-07-16T20:20:19.829Z,59.60
2018-07-16T20:22:53.021Z,51.80
2018-07-16T20:25:26.466Z,49.10
2018-07-16T20:27:59.593Z,51.00
2018-07-16T20:30:32.685Z,47.20
2018-07-16T20:33:05.901Z,47.20
2018-07-16T20:35:39.019Z,48.80
2018-07-16T20:38:12.338Z,48.90
2018-07-16T20:40:45.495Z,52.60
2018-07-16T20:43:18.911Z,49.60
2018-07-16T20:45:52.156Z,49.20
2018-07-16T20:48:25.070Z,50.30
2018-07-16T20:50:58.128Z,50.00
2018-07-16T20:53:31.020Z,50.10
2018-07-16T20:56:04.326Z,50.40
2018-07-16T20:58:37.538Z,47.40
2018-07-16T21:01:10.912Z,48.20
2018-07-16T21:03:43.935Z,50.00
2018-07-16T21:06:17.027Z,50.00
2018-07-16T21:08:50.095Z,47.80
2018-07-16T21:11:23.253Z,48.00
2018-07-16T21:13:56.266Z,49.70
2018-07-16T21:16:29.437Z,49.20
2018-07-16T21:19:02.679Z,49.90
2018-07-16T21:21:35.831Z,46.50
2018-07-16T21:24:09.586Z,46.50
2018-07-16T21:26:42.587Z,46.80
2018-07-16T21:29:17.001Z,48.60
2018-07-16T21:31:50.538Z,47.80
2018-07-16T21:34:23.604Z,47.30
2018-07-16T21:36:56.629Z,47.50
2018-07-16T21:39:31.063Z,46.50
2018-07-16T21:42:05.190Z,47.60
2018-07-16T21:44:40.015Z,45.40
2018-07-16T21:47:13.025Z,48.00
2018-07-16T21:49:46.055Z,45.50
2018-07-16T21:52:18.938Z,45.80
2018-07-16T21:54:52.942Z,45.50
2018-07-16T21:57:26.194Z,45.30
2018-07-16T21:59:59.278Z,43.50
2018-07-16T22:02:33.047Z,44.10
2018-07-16T22:05:06.155Z,42.30
2018-07-16T22:07:40.024Z,45.40
2018-07-16T22:10:13.442Z,42.80
2018-07-16T22:12:46.620Z,43.90
2018-07-16T22:15:26.970Z,45.60
2018-07-16T22:18:00.696Z,42.90
2018-07-16T22:20:33.700Z,43.30
2018-07-16T22:23:06.763Z,40.60
2018-07-16T22:25:39.818Z,42.10
2018-07-16T22:28:13.013Z,43.00
2018-07-16T22:30:46.158Z,39.80
2018-07-16T22:33:19.291Z,41.60
2018-07-16T22:35:52.636Z,42.30
2018-07-16T22:38:25.778Z,41.60
2018-07-16T22:40:58.667Z,40.80
2018-07-16T22:43:31.797Z,42.70
2018-07-16T22:46:04.871Z,40.10
2018-07-16T22:48:37.887Z,40.60
2018-07-16T22:51:10.830Z,39.60
2018-07-16T22:53:43.959Z,39.00
2018-07-16T22:56:18.193Z,38.80
2018-07-16T22:58:51.242Z,38.40
2018-07-16T23:01:24.319Z,40.10
2018-07-16T23:03:58.101Z,40.10
2018-07-16T23:06:31.071Z,40.50
2018-07-16T23:09:04.416Z,39.70
2018-07-16T23:11:37.653Z,39.10
2018-07-16T23:14:10.652Z,38.80
2018-07-16T23:16:43.634Z,39.20
2018-07-16T23:19:16.621Z,38.10
2018-07-16T23:21:49.501Z,40.50
2018-07-16T23:24:23.247Z,40.00
2018-07-16T23:26:56.298Z,38.00
2018-07-16T23:29:29.343Z,39.50
2018-07-16T23:32:02.497Z,39.20
2018-07-16T23:34:35.587Z,39.30
2018-07-16T23:37:08.540Z,36.60
2018-07-16T23:39:41.564Z,37.00
2018-07-16T23:42:14.665Z,37.40
2018-07-16T23:44:47.757Z,36.80
2018-07-16T23:47:20.723Z,38.20
2018-07-16T23:49:53.915Z,36.50
2018-07-16T23:52:27.131Z,35.60
2018-07-16T23:55:00.271Z,34.60
2018-07-16T23:57:33.612Z,35.00
